createdAt,value
2022-09-26T00:02:22.534Z,100255.81
2022-09-26T00:05:08.385Z,100241.16
2022-09-26T00:07:53.705Z,100241.47
2022-09-26T00:10:39.119Z,100230.38
2022-09-26T00:13:25.806Z,100218.47
2022-09-26T00:16:12.385Z,100211.66
2022-09-26T00:18:58.939Z,100212.66
2022-09-26T00:21:44.070Z,100207.47
2022-09-26T00:24:29.044Z,100204.13
2022-09-26T00:27:13.770Z,100198.94
2022-09-26T00:29:58.914Z,100187.81
2022-09-26T00:32:43.965Z,100176.81
2022-09-26T00:35:30.143Z,100171.59
2022-09-26T00:38:15.291Z,100170.00
2022-09-26T00:41:00.700Z,100163.88
2022-09-26T00:43:54.839Z,100157.06
2022-09-26T00:46:44.960Z,100147.31
2022-09-26T00:49:35.909Z,100156.59
2022-09-26T00:52:30.862Z,100153.88
2022-09-26T00:55:18.932Z,100153.91
2022-09-26T00:58:09.701Z,100147.22
2022-09-26T01:00:55.757Z,100140.25
2022-09-26T01:03:42.795Z,100130.94
2022-09-26T01:06:28.143Z,100133.47
2022-09-26T01:09:15.153Z,100127.47
2022-09-26T01:12:02.970Z,100130.84
2022-09-26T01:14:52.200Z,100123.06
2022-09-26T01:17:40.445Z,100120.50
2022-09-26T01:21:18.374Z,100110.25
2022-09-26T01:24:12.374Z,100109.34
2022-09-26T01:27:14.063Z,100103.44
2022-09-26T01:30:09.540Z,100102.47
2022-09-26T01:33:12.484Z,100095.53
2022-09-26T01:36:36.918Z,100098.16
2022-09-26T01:39:40.598Z,100091.25
2022-09-26T01:42:50.740Z,100090.31
2022-09-26T01:46:04.855Z,100097.09
2022-09-26T01:49:10.096Z,100095.25
2022-09-26T01:52:25.527Z,100095.28
2022-09-26T01:55:29.528Z,100082.25
2022-09-26T01:58:36.677Z,100076.22
2022-09-26T02:01:25.343Z,100078.84
2022-09-26T02:04:36.937Z,100072.88
2022-09-26T02:07:45.741Z,100062.56
2022-09-26T02:10:36.425Z,100060.91
2022-09-26T02:13:29.858Z,100051.47
2022-09-26T02:16:22.091Z,100039.41
2022-09-26T02:19:16.721Z,100041.97
2022-09-26T02:22:01.923Z,100035.03
2022-09-26T02:24:46.933Z,100028.19
2022-09-26T02:27:32.113Z,100018.81
2022-09-26T02:30:17.164Z,100022.28
2022-09-26T02:33:02.634Z,100013.66
2022-09-26T02:35:47.781Z,100011.94
2022-09-26T02:38:34.507Z,100017.91
2022-09-26T02:41:49.206Z,100005.03
2022-09-26T02:45:07.158Z,99997.31
2022-09-26T02:48:09.069Z,99992.09
2022-09-26T02:51:26.491Z,99982.69
2022-09-26T02:54:21.603Z,99982.66
2022-09-26T02:57:21.974Z,99980.13
2022-09-26T03:00:13.957Z,99978.44
2022-09-26T03:03:12.428Z,99965.50
2022-09-26T03:06:00.385Z,99958.66
2022-09-26T03:08:49.011Z,99954.38
2022-09-26T03:11:35.885Z,99947.50
2022-09-26T03:14:20.955Z,99944.94
2022-09-26T03:17:06.887Z,99938.06
2022-09-26T03:19:59.909Z,99932.03
2022-09-26T03:22:45.162Z,99929.50
2022-09-26T03:25:31.415Z,99922.59
2022-09-26T03:28:16.277Z,99925.22
2022-09-26T03:31:01.033Z,99909.75
2022-09-26T03:33:46.321Z,99908.91
2022-09-26T03:36:31.514Z,99905.47
2022-09-26T03:39:16.518Z,99901.22
2022-09-26T03:42:01.861Z,99896.91
2022-09-26T03:44:46.981Z,99887.44
2022-09-26T03:47:32.230Z,99885.72
2022-09-26T03:50:17.552Z,99872.84
2022-09-26T03:53:03.068Z,99879.72
2022-09-26T03:55:47.982Z,99868.56
2022-09-26T03:58:33.131Z,99864.28
2022-09-26T04:01:21.382Z,99872.00
2022-09-26T04:04:06.876Z,99869.41
2022-09-26T04:06:51.765Z,99858.22
2022-09-26T04:09:37.066Z,99859.91
2022-09-26T04:12:22.200Z,99856.47
2022-09-26T04:15:08.231Z,99847.06
2022-09-26T04:17:55.005Z,99847.84
2022-09-26T04:20:40.047Z,99848.72
2022-09-26T04:23:29.682Z,99833.25
2022-09-26T04:26:23.210Z,99832.41
2022-09-26T04:29:09.797Z,99833.22
2022-09-26T04:31:55.009Z,99823.72
2022-09-26T04:34:40.277Z,99816.88
2022-09-26T04:37:25.138Z,99817.72
2022-09-26T04:40:10.444Z,99822.84
2022-09-26T04:42:55.813Z,99806.56
2022-09-26T04:45:42.540Z,99801.41
2022-09-26T04:48:27.934Z,99789.41
2022-09-26T04:51:14.771Z,99786.78
2022-09-26T04:54:00.015Z,99780.78
2022-09-26T04:56:44.758Z,99787.66
2022-09-26T04:59:29.630Z,99785.00
2022-09-26T05:02:14.546Z,99785.88
2022-09-26T05:05:00.016Z,99780.72
2022-09-26T05:07:45.520Z,99789.31
2022-09-26T05:10:30.436Z,99767.81
2022-09-26T05:13:15.914Z,99762.69
2022-09-26T05:16:01.736Z,99762.69
2022-09-26T05:18:53.005Z,99769.59
2022-09-26T05:21:38.539Z,99760.13
2022-09-26T05:24:23.636Z,99755.81
2022-09-26T05:27:08.663Z,99762.69
2022-09-26T05:29:53.986Z,99758.41
2022-09-26T05:32:39.870Z,99754.91
2022-09-26T05:35:25.210Z,99762.69
2022-09-26T05:38:10.664Z,99754.09
2022-09-26T05:40:56.166Z,99760.09
2022-09-26T05:43:41.272Z,99747.22
2022-09-26T05:46:26.728Z,99745.53
2022-09-26T05:49:11.849Z,99742.09
2022-09-26T05:51:57.335Z,99740.41
2022-09-26T05:54:42.423Z,99740.41
2022-09-26T05:57:27.781Z,99741.28
2022-09-26T06:00:13.398Z,99737.00
2022-09-26T06:03:00.327Z,99733.56
2022-09-26T06:05:45.549Z,99716.38
2022-09-26T06:08:31.741Z,99722.41
2022-09-26T06:11:19.195Z,99726.72
2022-09-26T06:14:04.595Z,99723.31
2022-09-26T06:16:49.912Z,99717.28
2022-09-26T06:19:34.971Z,99712.09
2022-09-26T06:22:19.985Z,99713.81
2022-09-26T06:25:05.461Z,99705.22
2022-09-26T06:27:59.121Z,99711.25
2022-09-26T06:30:45.126Z,99697.47
2022-09-26T06:33:33.384Z,99694.03
2022-09-26T06:36:19.144Z,99694.06
2022-09-26T06:39:04.306Z,99685.47
2022-09-26T06:41:51.398Z,99686.34
2022-09-26T06:44:36.814Z,99675.19
2022-09-26T06:47:22.229Z,99672.56
2022-09-26T06:50:07.794Z,99661.41
2022-09-26T06:52:53.219Z,99654.53
2022-09-26T06:55:38.806Z,99645.97
2022-09-26T06:58:24.245Z,99647.69
2022-09-26T07:01:09.896Z,99647.72
2022-09-26T07:03:55.218Z,99634.78
2022-09-26T07:06:40.554Z,99627.84
2022-09-26T07:09:25.499Z,99624.41
2022-09-26T07:12:14.492Z,99626.16
2022-09-26T07:15:00.311Z,99617.53
2022-09-26T07:17:47.625Z,99602.84
2022-09-26T07:20:36.201Z,99612.28
2022-09-26T07:23:21.347Z,99591.53
2022-09-26T07:26:30.260Z,99571.59
2022-09-26T07:29:15.605Z,99572.38
2022-09-26T07:32:01.269Z,99550.66
2022-09-26T07:34:46.539Z,99550.66
2022-09-26T07:37:32.027Z,99555.16
2022-09-26T07:40:17.223Z,99567.34
2022-09-26T07:43:19.643Z,99569.84
2022-09-26T07:46:06.034Z,99559.44
2022-09-26T07:48:51.205Z,99534.53
2022-09-26T07:51:36.684Z,99562.94
2022-09-26T07:54:21.893Z,99537.00
2022-09-26T07:57:06.996Z,99524.00
2022-09-26T07:59:52.440Z,99525.69
2022-09-26T08:02:37.597Z,99517.03
2022-09-26T08:05:22.895Z,99518.75
2022-09-26T08:08:07.785Z,99510.97
2022-09-26T08:10:52.937Z,99515.22
2022-09-26T08:13:38.289Z,99497.03
2022-09-26T08:16:23.973Z,99510.91
2022-09-26T08:19:12.645Z,99488.38
2022-09-26T08:21:57.609Z,99486.50
2022-09-26T08:24:43.156Z,99471.75
2022-09-26T08:27:33.108Z,99470.06
2022-09-26T08:30:19.640Z,99481.16
2022-09-26T08:33:05.014Z,99451.84
2022-09-26T08:35:50.404Z,99462.25
2022-09-26T08:38:36.319Z,99438.00
2022-09-26T08:41:52.460Z,99453.66
2022-09-26T08:45:04.858Z,99470.09
2022-09-26T08:48:01.873Z,99464.00
2022-09-26T08:50:58.988Z,99448.50
2022-09-26T08:53:57.552Z,99444.25
2022-09-26T08:56:56.448Z,99458.91
2022-09-26T08:59:45.718Z,99460.56
2022-09-26T09:02:38.794Z,99462.22
2022-09-26T09:05:31.384Z,99459.59
2022-09-26T09:08:22.215Z,99457.06
2022-09-26T09:11:19.951Z,99475.28
2022-09-26T09:14:21.866Z,99491.75
2022-09-26T09:17:35.008Z,99501.28
2022-09-26T09:20:56.809Z,99486.69
2022-09-26T09:23:47.807Z,99513.53
2022-09-26T09:30:15.741Z,99544.69
2022-09-26T09:33:28.242Z,99518.81
2022-09-26T09:36:17.223Z,99525.75
2022-09-26T09:39:08.094Z,99518.00
2022-09-26T09:41:59.625Z,99519.72
2022-09-26T09:44:48.970Z,99511.09
2022-09-26T09:47:38.627Z,99504.25
2022-09-26T09:50:53.313Z,99528.47
2022-09-26T09:53:38.317Z,99526.78
2022-09-26T09:57:01.057Z,99534.56
2022-09-26T10:00:21.845Z,99545.00
2022-09-26T10:03:19.757Z,99533.81
2022-09-26T10:06:05.552Z,99519.19
2022-09-26T10:08:50.672Z,99523.50
2022-09-26T10:11:41.062Z,99529.56
2022-09-26T10:14:42.424Z,99521.78
2022-09-26T10:17:28.785Z,99509.69
2022-09-26T10:20:38.078Z,99508.81
2022-09-26T10:23:34.405Z,99503.66
2022-09-26T10:26:31.096Z,99517.47
2022-09-26T10:29:24.373Z,99516.63
2022-09-26T10:32:11.409Z,99512.31
2022-09-26T10:35:28.669Z,99513.19
2022-09-26T10:38:26.999Z,99500.25
2022-09-26T10:41:23.450Z,99500.25
2022-09-26T10:44:27.309Z,99495.94
2022-09-26T10:47:19.692Z,99493.34
2022-09-26T10:50:14.058Z,99491.66
2022-09-26T10:53:05.911Z,99502.88
2022-09-26T10:55:59.664Z,99489.94
2022-09-26T10:58:46.974Z,99487.34
2022-09-26T11:01:40.663Z,99475.28
2022-09-26T11:04:29.181Z,99471.81
2022-09-26T11:07:23.613Z,99451.13
2022-09-26T11:10:13.146Z,99455.41
2022-09-26T11:13:01.543Z,99446.78
2022-09-26T11:15:55.885Z,99449.38
2022-09-26T11:18:41.415Z,99448.53
2022-09-26T11:21:44.706Z,99447.69
2022-09-26T11:24:36.957Z,99414.00
2022-09-26T11:27:39.647Z,99408.81
2022-09-26T11:30:27.490Z,99396.75
2022-09-26T11:33:14.009Z,99387.25
2022-09-26T11:36:11.249Z,99382.91
2022-09-26T11:39:01.215Z,99379.41
2022-09-26T11:41:46.391Z,99377.66
2022-09-26T11:44:49.595Z,99355.16
2022-09-26T11:48:08.584Z,99358.63
2022-09-26T11:51:02.176Z,99371.56
2022-09-26T11:54:20.279Z,99364.63
2022-09-26T11:57:33.070Z,99349.97
2022-09-26T12:00:21.993Z,99336.13
2022-09-26T12:03:46.020Z,99344.75
2022-09-26T12:06:41.064Z,99341.25
2022-09-26T12:09:43.618Z,99324.81
2022-09-26T12:12:53.460Z,99320.44
2022-09-26T12:15:56.546Z,99309.22
2022-09-26T12:18:50.511Z,99309.16
2022-09-26T12:21:51.905Z,99301.34
2022-09-26T12:25:24.626Z,99295.28
2022-09-26T12:28:15.957Z,99301.34
2022-09-26T12:31:18.655Z,99291.03
2022-09-26T12:34:24.433Z,99289.25
2022-09-26T12:37:31.350Z,99278.03
2022-09-26T12:40:22.604Z,99286.66
2022-09-26T12:43:51.531Z,99294.50
2022-09-26T12:46:44.607Z,99279.00
2022-09-26T12:49:33.036Z,99272.06
2022-09-26T12:52:33.087Z,99272.06
2022-09-26T12:55:26.309Z,99261.72
2022-09-26T12:58:35.476Z,99265.16
2022-09-26T13:01:45.417Z,99240.00
2022-09-26T13:04:58.482Z,99237.28
2022-09-26T13:08:03.521Z,99207.84
2022-09-26T13:11:10.547Z,99207.81
2022-09-26T13:14:01.819Z,99206.88
2022-09-26T13:16:55.251Z,99187.81
2022-09-26T13:19:59.123Z,99179.91
2022-09-26T13:22:56.804Z,99168.59
2022-09-26T13:25:54.020Z,99151.22
2022-09-26T13:29:06.486Z,99167.53
2022-09-26T13:31:57.342Z,99159.69
2022-09-26T13:34:50.950Z,99144.88
2022-09-26T13:37:41.963Z,99133.50
2022-09-26T13:40:40.487Z,99134.31
2022-09-26T13:43:47.013Z,99134.34
2022-09-26T13:46:32.143Z,99130.84
2022-09-26T13:49:26.871Z,99111.81
2022-09-26T13:52:24.416Z,99103.97
2022-09-26T13:55:09.941Z,99116.88
2022-09-26T13:57:58.278Z,99106.50
2022-09-26T14:00:45.451Z,99104.91
2022-09-26T14:03:37.204Z,99109.38
2022-09-26T14:06:28.554Z,99128.47
2022-09-26T14:09:21.888Z,99144.22
2022-09-26T14:12:18.522Z,99158.19
2022-09-26T14:15:16.714Z,99159.25
2022-09-26T14:18:11.289Z,99173.09
2022-09-26T14:21:04.383Z,99160.25
2022-09-26T14:24:10.702Z,99150.69
2022-09-26T14:27:05.260Z,99167.16
2022-09-26T14:29:52.367Z,99162.88
2022-09-26T14:32:41.005Z,99154.19
2022-09-26T14:35:27.471Z,99177.66
2022-09-26T14:38:20.286Z,99160.50
2022-09-26T14:41:05.542Z,99169.16
2022-09-26T14:43:51.956Z,99162.34
2022-09-26T14:46:37.296Z,99156.25
2022-09-26T14:49:26.893Z,99157.13
2022-09-26T14:52:19.682Z,99144.22
2022-09-26T14:55:06.911Z,99145.91
2022-09-26T14:57:52.223Z,99142.44
2022-09-26T15:00:40.723Z,99135.47
2022-09-26T15:03:26.253Z,99132.00
2022-09-26T15:06:13.378Z,99129.50
2022-09-26T15:08:59.151Z,99120.06
2022-09-26T15:11:48.043Z,99111.41
2022-09-26T15:14:39.410Z,99124.34
2022-09-26T15:17:31.706Z,99126.09
2022-09-26T15:20:21.413Z,99108.00
2022-09-26T15:23:21.908Z,99114.97
2022-09-26T15:26:08.998Z,99114.16
2022-09-26T15:28:56.229Z,99107.28
2022-09-26T15:31:46.971Z,99101.22
2022-09-26T15:34:37.774Z,99091.75
2022-09-26T15:37:30.214Z,99088.34
2022-09-26T15:40:19.813Z,99094.31
2022-09-26T15:43:23.975Z,99083.97
2022-09-26T15:46:24.813Z,99092.63
2022-09-26T15:49:13.163Z,99073.66
2022-09-26T15:51:58.416Z,99065.84
2022-09-26T15:54:43.940Z,99069.38
2022-09-26T15:57:29.568Z,99053.81
2022-09-26T16:00:15.592Z,99052.97
2022-09-26T16:03:26.327Z,99050.44
2022-09-26T16:06:42.907Z,99053.88
2022-09-26T16:09:43.006Z,99032.28
2022-09-26T16:12:29.332Z,99035.75
2022-09-26T16:15:18.447Z,99038.41
2022-09-26T16:18:03.736Z,99024.59
2022-09-26T16:20:49.523Z,99036.69
2022-09-26T16:23:45.214Z,99031.59
2022-09-26T16:26:39.207Z,99033.28
2022-09-26T16:29:34.360Z,99033.31
2022-09-26T16:32:21.517Z,99028.16
2022-09-26T16:35:16.777Z,99021.31
2022-09-26T16:38:20.625Z,99027.38
2022-09-26T16:41:36.250Z,99034.31
2022-09-26T16:44:33.834Z,99021.50
2022-09-26T16:47:26.263Z,99022.34
2022-09-26T16:50:25.328Z,99012.94
2022-09-26T16:53:11.051Z,99014.69
2022-09-26T16:55:56.740Z,99010.38
2022-09-26T16:58:49.868Z,99019.84
2022-09-26T17:01:35.475Z,99017.25
2022-09-26T17:04:32.570Z,99012.16
2022-09-26T17:07:18.017Z,99012.19
2022-09-26T17:10:03.627Z,98998.34
2022-09-26T17:12:48.734Z,98999.25
2022-09-26T17:15:33.822Z,98995.84
2022-09-26T17:18:22.760Z,99005.31
2022-09-26T17:21:08.670Z,98994.13
2022-09-26T17:23:54.229Z,98994.22
2022-09-26T17:26:41.268Z,98990.75
2022-09-26T17:29:42.470Z,98988.97
2022-09-26T17:32:32.174Z,98986.47
2022-09-26T17:35:27.481Z,98981.28
2022-09-26T17:38:12.787Z,98983.03
2022-09-26T17:40:58.413Z,98969.22
2022-09-26T17:43:43.758Z,98977.00
2022-09-26T17:46:29.371Z,98958.88
2022-09-26T17:49:36.885Z,98966.63
2022-09-26T17:52:23.908Z,98959.72
2022-09-26T17:55:11.577Z,98972.59
2022-09-26T17:57:57.127Z,98945.84
2022-09-26T18:00:42.696Z,98944.16
2022-09-26T18:03:31.478Z,98946.72
2022-09-26T18:06:18.098Z,98944.13
2022-09-26T18:09:04.191Z,98938.91
2022-09-26T18:11:58.973Z,98939.84
2022-09-26T18:14:44.386Z,98941.63
2022-09-26T18:17:29.888Z,98941.63
2022-09-26T18:20:16.695Z,98944.31
2022-09-26T18:23:02.143Z,98935.81
2022-09-26T18:25:50.728Z,98942.75
2022-09-26T18:28:36.974Z,98936.69
2022-09-26T18:31:28.345Z,98929.03
2022-09-26T18:34:16.783Z,98935.97
2022-09-26T18:37:02.024Z,98937.69
2022-09-26T18:39:49.764Z,98925.66
2022-09-26T18:42:39.199Z,98921.41
2022-09-26T18:45:30.926Z,98928.28
2022-09-26T18:48:21.824Z,98922.28
2022-09-26T18:51:07.377Z,98932.69
2022-09-26T18:53:52.628Z,98915.44
2022-09-26T18:56:37.776Z,98916.28
2022-09-26T18:59:26.875Z,98917.19
2022-09-26T19:02:26.690Z,98910.38
2022-09-26T19:05:15.600Z,98915.53
2022-09-26T19:08:04.874Z,98904.38
2022-09-26T19:10:50.052Z,98900.09
2022-09-26T19:13:35.595Z,98894.97
2022-09-26T19:16:21.878Z,98894.09
2022-09-26T19:19:07.465Z,98894.06
2022-09-26T19:21:59.782Z,98888.03
2022-09-26T19:24:48.885Z,98885.44
2022-09-26T19:27:49.629Z,98876.84
2022-09-26T19:30:34.961Z,98872.59
2022-09-26T19:33:21.205Z,98876.03
2022-09-26T19:36:06.612Z,98879.53
2022-09-26T19:38:51.999Z,98868.31
2022-09-26T19:41:37.257Z,98865.78
2022-09-26T19:44:22.407Z,98855.50
2022-09-26T19:47:15.871Z,98861.50
2022-09-26T19:50:02.211Z,98855.50
2022-09-26T19:52:48.560Z,98858.09
2022-09-26T19:55:33.929Z,98848.59
2022-09-26T19:58:24.823Z,98846.06
2022-09-26T20:01:15.709Z,98851.22
2022-09-26T20:04:01.371Z,98852.09
2022-09-26T20:06:47.160Z,98842.59
2022-09-26T20:09:32.729Z,98837.53
2022-09-26T20:12:18.241Z,98834.91
2022-09-26T20:15:03.889Z,98841.78
2022-09-26T20:17:49.428Z,98840.06
2022-09-26T20:20:35.787Z,98835.78
2022-09-26T20:23:24.240Z,98835.81
2022-09-26T20:26:09.479Z,98828.91
2022-09-26T20:28:56.320Z,98827.22
2022-09-26T20:31:42.353Z,98825.47
2022-09-26T20:34:27.419Z,98820.31
2022-09-26T20:37:14.158Z,98817.69
2022-09-26T20:40:00.622Z,98810.84
2022-09-26T20:42:50.112Z,98801.38
2022-09-26T20:45:38.937Z,98802.22
2022-09-26T20:48:26.901Z,98798.78
2022-09-26T20:51:19.900Z,98794.47
2022-09-26T20:54:09.610Z,98785.00
2022-09-26T20:56:55.940Z,98786.72
2022-09-26T20:59:41.340Z,98775.53
2022-09-26T21:02:36.857Z,98788.44
2022-09-26T21:05:25.590Z,98784.97
2022-09-26T21:08:32.514Z,98781.50
2022-09-26T21:11:20.079Z,98781.56
2022-09-26T21:14:05.065Z,98766.91
2022-09-26T21:16:52.079Z,98764.31
2022-09-26T21:19:37.656Z,98769.50
2022-09-26T21:22:26.385Z,98772.91
2022-09-26T21:25:19.749Z,98764.34
2022-09-26T21:28:32.204Z,98763.50
2022-09-26T21:31:30.798Z,98771.22
2022-09-26T21:34:27.697Z,98764.31
2022-09-26T21:37:12.989Z,98777.19
2022-09-26T21:39:58.497Z,98773.78
2022-09-26T21:42:50.594Z,98766.00
2022-09-26T21:45:35.657Z,98767.66
2022-09-26T21:48:21.442Z,98768.53
2022-09-26T21:51:06.840Z,98765.09
2022-09-26T21:53:57.610Z,98764.25
2022-09-26T21:56:56.944Z,98759.94
2022-09-26T21:59:42.534Z,98762.56
2022-09-26T22:02:27.780Z,98762.53
2022-09-26T22:05:13.294Z,98746.19
2022-09-26T22:07:58.601Z,98748.72
2022-09-26T22:10:44.083Z,98747.03
2022-09-26T22:13:30.194Z,98739.31
2022-09-26T22:16:15.339Z,98743.56
2022-09-26T22:19:00.528Z,98733.22
2022-09-26T22:21:45.753Z,98725.47
2022-09-26T22:24:31.250Z,98728.88
2022-09-26T22:27:16.540Z,98719.44
2022-09-26T22:30:02.475Z,98723.72
2022-09-26T22:32:47.397Z,98717.69
2022-09-26T22:35:32.356Z,98712.50
2022-09-26T22:38:17.757Z,98714.22
2022-09-26T22:41:05.334Z,98709.06
2022-09-26T22:43:52.497Z,98703.00
2022-09-26T22:46:37.788Z,98702.97
2022-09-26T22:49:22.853Z,98703.00
2022-09-26T22:52:07.929Z,98696.97
2022-09-26T22:54:53.367Z,98690.97
2022-09-26T22:57:38.461Z,98685.75
2022-09-26T23:00:23.498Z,98681.41
2022-09-26T23:03:08.396Z,98687.50
2022-09-26T23:05:53.431Z,98678.91
2022-09-26T23:08:38.275Z,98684.09
2022-09-26T23:11:23.863Z,98684.13
2022-09-26T23:14:09.091Z,98678.06
2022-09-26T23:16:54.599Z,98673.75
2022-09-26T23:19:39.967Z,98672.00
2022-09-26T23:22:25.354Z,98666.81
2022-09-26T23:25:10.812Z,98669.44
2022-09-26T23:27:55.932Z,98665.09
2022-09-26T23:30:41.245Z,98669.38
2022-09-26T23:33:26.586Z,98659.06
2022-09-26T23:36:11.991Z,98656.53
2022-09-26T23:38:57.433Z,98644.41
2022-09-26T23:41:42.834Z,98652.16
2022-09-26T23:44:27.746Z,98642.69
2022-09-26T23:47:13.233Z,98642.63
2022-09-26T23:49:58.434Z,98634.81
2022-09-26T23:52:43.408Z,98640.81
2022-09-26T23:55:28.392Z,98641.75
2022-09-26T23:58:14.146Z,98640.03
